sensor_id;sensor_type;location;lat;lon;timestamp;P1;durP1;ratioP1;P2;durP2;ratioP2
37527;SDS011;23372;52.050;4.810;2022-12-07T00:01:33;5.73;;;2.43;;
37527;SDS011;23372;52.050;4.810;2022-12-07T00:04:01;8.67;;;2.70;;
37527;SDS011;23372;52.050;4.810;2022-12-07T00:06:35;7.50;;;2.47;;
37527;SDS011;23372;52.050;4.810;2022-12-07T00:09:02;7.07;;;2.37;;
37527;SDS011;23372;52.050;4.810;2022-12-07T00:11:29;7.83;;;2.20;;
37527;SDS011;23372;52.050;4.810;2022-12-07T00:13:58;9.07;;;2.27;;
37527;SDS011;23372;52.050;4.810;2022-12-07T00:16:26;10.17;;;2.67;;
37527;SDS011;23372;52.050;4.810;2022-12-07T00:18:54;7.60;;;2.50;;
37527;SDS011;23372;52.050;4.810;2022-12-07T00:21:27;5.57;;;1.97;;
37527;SDS011;23372;52.050;4.810;2022-12-07T00:23:54;11.17;;;2.47;;
37527;SDS011;23372;52.050;4.810;2022-12-07T00:26:24;7.53;;;2.40;;
37527;SDS011;23372;52.050;4.810;2022-12-07T00:28:52;9.43;;;2.43;;
37527;SDS011;23372;52.050;4.810;2022-12-07T00:31:20;6.17;;;1.97;;
37527;SDS011;23372;52.050;4.810;2022-12-07T00:33:47;5.90;;;2.00;;
37527;SDS011;23372;52.050;4.810;2022-12-07T00:36:14;9.07;;;2.50;;
37527;SDS011;23372;52.050;4.810;2022-12-07T00:38:42;5.63;;;2.20;;
37527;SDS011;23372;52.050;4.810;2022-12-07T00:41:12;8.50;;;2.30;;
37527;SDS011;23372;52.050;4.810;2022-12-07T00:43:39;5.50;;;2.47;;
37527;SDS011;23372;52.050;4.810;2022-12-07T00:46:07;7.70;;;1.63;;
37527;SDS011;23372;52.050;4.810;2022-12-07T00:48:33;4.90;;;1.90;;
37527;SDS011;23372;52.050;4.810;2022-12-07T00:50:59;5.43;;;1.40;;
37527;SDS011;23372;52.050;4.810;2022-12-07T00:53:25;8.10;;;1.70;;
37527;SDS011;23372;52.050;4.810;2022-12-07T00:55:51;6.00;;;1.30;;
37527;SDS011;23372;52.050;4.810;2022-12-07T00:58:17;7.73;;;1.97;;
37527;SDS011;23372;52.050;4.810;2022-12-07T01:00:43;4.87;;;1.40;;
37527;SDS011;23372;52.050;4.810;2022-12-07T01:03:10;5.13;;;1.40;;
37527;SDS011;23372;52.050;4.810;2022-12-07T01:05:37;4.40;;;1.20;;
37527;SDS011;23372;52.050;4.810;2022-12-07T01:08:03;7.20;;;1.70;;
37527;SDS011;23372;52.050;4.810;2022-12-07T01:10:30;11.67;;;1.57;;
37527;SDS011;23372;52.050;4.810;2022-12-07T01:12:56;6.10;;;1.60;;
37527;SDS011;23372;52.050;4.810;2022-12-07T01:15:23;7.00;;;1.80;;
37527;SDS011;23372;52.050;4.810;2022-12-07T01:17:49;5.00;;;1.50;;
37527;SDS011;23372;52.050;4.810;2022-12-07T01:20:15;4.93;;;1.40;;
37527;SDS011;23372;52.050;4.810;2022-12-07T01:22:41;6.57;;;1.40;;
37527;SDS011;23372;52.050;4.810;2022-12-07T01:25:08;7.43;;;1.50;;
37527;SDS011;23372;52.050;4.810;2022-12-07T01:27:36;3.20;;;1.20;;
37527;SDS011;23372;52.050;4.810;2022-12-07T01:30:03;7.37;;;1.17;;
37527;SDS011;23372;52.050;4.810;2022-12-07T01:32:30;7.60;;;1.30;;
37527;SDS011;23372;52.050;4.810;2022-12-07T01:34:56;5.77;;;1.20;;
37527;SDS011;23372;52.050;4.810;2022-12-07T01:37:21;3.83;;;1.03;;
37527;SDS011;23372;52.050;4.810;2022-12-07T01:39:51;5.63;;;1.23;;
37527;SDS011;23372;52.050;4.810;2022-12-07T01:42:17;5.87;;;1.90;;
37527;SDS011;23372;52.050;4.810;2022-12-07T01:47:43;6.13;;;1.60;;
37527;SDS011;23372;52.050;4.810;2022-12-07T01:50:13;6.37;;;1.07;;
37527;SDS011;23372;52.050;4.810;2022-12-07T01:52:39;4.57;;;1.60;;
37527;SDS011;23372;52.050;4.810;2022-12-07T01:55:08;9.60;;;1.90;;
37527;SDS011;23372;52.050;4.810;2022-12-07T01:57:41;3.27;;;0.90;;
37527;SDS011;23372;52.050;4.810;2022-12-07T02:00:10;7.63;;;1.20;;
37527;SDS011;23372;52.050;4.810;2022-12-07T02:02:38;6.73;;;1.00;;
37527;SDS011;23372;52.050;4.810;2022-12-07T02:05:16;3.37;;;1.10;;
37527;SDS011;23372;52.050;4.810;2022-12-07T02:07:43;5.47;;;1.27;;
37527;SDS011;23372;52.050;4.810;2022-12-07T02:10:12;7.90;;;1.07;;
37527;SDS011;23372;52.050;4.810;2022-12-07T02:12:49;5.20;;;1.67;;
37527;SDS011;23372;52.050;4.810;2022-12-07T02:15:35;10.47;;;1.20;;
37527;SDS011;23372;52.050;4.810;2022-12-07T02:20:55;4.77;;;1.03;;
37527;SDS011;23372;52.050;4.810;2022-12-07T02:31:56;4.30;;;0.73;;
37527;SDS011;23372;52.050;4.810;2022-12-07T02:37:21;8.57;;;1.60;;
37527;SDS011;23372;52.050;4.810;2022-12-07T02:42:42;2.87;;;1.17;;
37527;SDS011;23372;52.050;4.810;2022-12-07T02:45:17;7.80;;;1.47;;
37527;SDS011;23372;52.050;4.810;2022-12-07T02:47:46;5.00;;;1.40;;
37527;SDS011;23372;52.050;4.810;2022-12-07T02:50:14;11.90;;;1.27;;
37527;SDS011;23372;52.050;4.810;2022-12-07T02:52:42;4.37;;;0.93;;
37527;SDS011;23372;52.050;4.810;2022-12-07T02:55:07;10.57;;;0.90;;
37527;SDS011;23372;52.050;4.810;2022-12-07T03:00:06;5.27;;;1.03;;
37527;SDS011;23372;52.050;4.810;2022-12-07T03:02:38;4.53;;;0.97;;
37527;SDS011;23372;52.050;4.810;2022-12-07T03:05:13;6.57;;;0.90;;
37527;SDS011;23372;52.050;4.810;2022-12-07T03:08:06;5.17;;;1.00;;
37527;SDS011;23372;52.050;4.810;2022-12-07T03:11:02;5.07;;;1.00;;
37527;SDS011;23372;52.050;4.810;2022-12-07T03:13:39;5.50;;;1.30;;
37527;SDS011;23372;52.050;4.810;2022-12-07T03:16:16;4.17;;;1.23;;
37527;SDS011;23372;52.050;4.810;2022-12-07T03:21:23;7.40;;;1.10;;
37527;SDS011;23372;52.050;4.810;2022-12-07T03:23:56;5.67;;;0.77;;
37527;SDS011;23372;52.050;4.810;2022-12-07T03:26:28;8.00;;;1.10;;
37527;SDS011;23372;52.050;4.810;2022-12-07T03:28:59;2.47;;;0.60;;
37527;SDS011;23372;52.050;4.810;2022-12-07T03:31:35;4.93;;;0.70;;
37527;SDS011;23372;52.050;4.810;2022-12-07T03:34:13;11.03;;;1.17;;
37527;SDS011;23372;52.050;4.810;2022-12-07T03:36:54;1.80;;;0.70;;
37527;SDS011;23372;52.050;4.810;2022-12-07T03:39:30;7.57;;;1.30;;
37527;SDS011;23372;52.050;4.810;2022-12-07T03:42:04;5.93;;;0.83;;
37527;SDS011;23372;52.050;4.810;2022-12-07T03:44:33;4.60;;;0.80;;
37527;SDS011;23372;52.050;4.810;2022-12-07T03:47:12;3.90;;;0.80;;
37527;SDS011;23372;52.050;4.810;2022-12-07T03:50:11;4.00;;;0.90;;
37527;SDS011;23372;52.050;4.810;2022-12-07T03:52:50;4.57;;;0.60;;
37527;SDS011;23372;52.050;4.810;2022-12-07T03:55:25;2.83;;;0.97;;
37527;SDS011;23372;52.050;4.810;2022-12-07T03:57:58;10.60;;;1.40;;
37527;SDS011;23372;52.050;4.810;2022-12-07T04:00:28;6.87;;;0.93;;
37527;SDS011;23372;52.050;4.810;2022-12-07T04:02:54;6.23;;;0.73;;
37527;SDS011;23372;52.050;4.810;2022-12-07T04:05:20;2.27;;;0.60;;
37527;SDS011;23372;52.050;4.810;2022-12-07T04:07:46;5.07;;;0.63;;
37527;SDS011;23372;52.050;4.810;2022-12-07T04:10:12;7.13;;;0.70;;
37527;SDS011;23372;52.050;4.810;2022-12-07T04:12:37;5.37;;;0.87;;
37527;SDS011;23372;52.050;4.810;2022-12-07T04:15:03;5.83;;;0.43;;
37527;SDS011;23372;52.050;4.810;2022-12-07T04:17:30;4.67;;;0.90;;
37527;SDS011;23372;52.050;4.810;2022-12-07T04:19:55;5.57;;;0.77;;
37527;SDS011;23372;52.050;4.810;2022-12-07T04:22:21;8.23;;;0.73;;
37527;SDS011;23372;52.050;4.810;2022-12-07T04:24:46;3.50;;;0.60;;
37527;SDS011;23372;52.050;4.810;2022-12-07T04:27:12;6.27;;;0.70;;
37527;SDS011;23372;52.050;4.810;2022-12-07T04:29:37;8.03;;;0.90;;
37527;SDS011;23372;52.050;4.810;2022-12-07T04:32:03;4.50;;;0.77;;
37527;SDS011;23372;52.050;4.810;2022-12-07T04:34:29;7.70;;;0.90;;
37527;SDS011;23372;52.050;4.810;2022-12-07T04:36:54;7.17;;;0.70;;
37527;SDS011;23372;52.050;4.810;2022-12-07T04:39:21;6.90;;;0.50;;
37527;SDS011;23372;52.050;4.810;2022-12-07T04:41:49;5.20;;;0.70;;
37527;SDS011;23372;52.050;4.810;2022-12-07T04:44:16;9.57;;;0.77;;
37527;SDS011;23372;52.050;4.810;2022-12-07T04:46:43;1.77;;;0.63;;
37527;SDS011;23372;52.050;4.810;2022-12-07T04:49:08;6.40;;;0.90;;
37527;SDS011;23372;52.050;4.810;2022-12-07T04:51:35;12.77;;;1.70;;
37527;SDS011;23372;52.050;4.810;2022-12-07T04:54:00;6.50;;;0.70;;
37527;SDS011;23372;52.050;4.810;2022-12-07T04:56:26;9.27;;;0.90;;
37527;SDS011;23372;52.050;4.810;2022-12-07T04:58:52;6.17;;;1.17;;
37527;SDS011;23372;52.050;4.810;2022-12-07T05:01:18;8.47;;;0.70;;
37527;SDS011;23372;52.050;4.810;2022-12-07T05:03:45;10.10;;;1.13;;
37527;SDS011;23372;52.050;4.810;2022-12-07T05:06:11;9.23;;;1.17;;
37527;SDS011;23372;52.050;4.810;2022-12-07T05:08:37;5.30;;;0.90;;
37527;SDS011;23372;52.050;4.810;2022-12-07T05:11:03;5.50;;;1.13;;
37527;SDS011;23372;52.050;4.810;2022-12-07T05:13:29;7.17;;;1.17;;
37527;SDS011;23372;52.050;4.810;2022-12-07T05:15:55;11.77;;;1.57;;
37527;SDS011;23372;52.050;4.810;2022-12-07T05:18:21;11.47;;;1.47;;
37527;SDS011;23372;52.050;4.810;2022-12-07T05:20:46;8.37;;;1.03;;
37527;SDS011;23372;52.050;4.810;2022-12-07T05:23:12;5.83;;;1.30;;
37527;SDS011;23372;52.050;4.810;2022-12-07T05:25:38;7.43;;;0.73;;
37527;SDS011;23372;52.050;4.810;2022-12-07T05:28:03;7.50;;;0.93;;
37527;SDS011;23372;52.050;4.810;2022-12-07T05:30:29;6.50;;;1.30;;
37527;SDS011;23372;52.050;4.810;2022-12-07T05:32:56;6.90;;;1.30;;
37527;SDS011;23372;52.050;4.810;2022-12-07T05:35:21;5.20;;;1.07;;
37527;SDS011;23372;52.050;4.810;2022-12-07T05:37:47;4.23;;;1.00;;
37527;SDS011;23372;52.050;4.810;2022-12-07T05:40:13;6.87;;;1.47;;
37527;SDS011;23372;52.050;4.810;2022-12-07T05:42:40;8.63;;;1.23;;
37527;SDS011;23372;52.050;4.810;2022-12-07T05:45:06;10.60;;;1.00;;
37527;SDS011;23372;52.050;4.810;2022-12-07T05:47:33;5.70;;;0.87;;
37527;SDS011;23372;52.050;4.810;2022-12-07T05:49:58;14.00;;;1.70;;
37527;SDS011;23372;52.050;4.810;2022-12-07T05:52:24;6.97;;;1.20;;
37527;SDS011;23372;52.050;4.810;2022-12-07T05:54:50;9.60;;;1.33;;
37527;SDS011;23372;52.050;4.810;2022-12-07T05:57:16;14.30;;;1.47;;
37527;SDS011;23372;52.050;4.810;2022-12-07T05:59:42;7.50;;;1.07;;
37527;SDS011;23372;52.050;4.810;2022-12-07T06:02:08;7.93;;;1.17;;
37527;SDS011;23372;52.050;4.810;2022-12-07T06:04:37;10.10;;;1.63;;
37527;SDS011;23372;52.050;4.810;2022-12-07T06:07:05;12.87;;;3.27;;
37527;SDS011;23372;52.050;4.810;2022-12-07T06:09:32;5.60;;;1.30;;
37527;SDS011;23372;52.050;4.810;2022-12-07T06:11:58;5.93;;;1.17;;
37527;SDS011;23372;52.050;4.810;2022-12-07T06:14:53;8.17;;;1.27;;
37527;SDS011;23372;52.050;4.810;2022-12-07T06:17:18;5.93;;;1.13;;
37527;SDS011;23372;52.050;4.810;2022-12-07T06:19:44;5.57;;;1.10;;
37527;SDS011;23372;52.050;4.810;2022-12-07T06:22:10;4.73;;;1.30;;
37527;SDS011;23372;52.050;4.810;2022-12-07T06:24:36;9.27;;;1.07;;
37527;SDS011;23372;52.050;4.810;2022-12-07T06:27:03;10.63;;;2.10;;
37527;SDS011;23372;52.050;4.810;2022-12-07T06:29:29;10.80;;;1.27;;
37527;SDS011;23372;52.050;4.810;2022-12-07T06:31:54;4.73;;;1.00;;
37527;SDS011;23372;52.050;4.810;2022-12-07T06:34:20;8.27;;;1.20;;
37527;SDS011;23372;52.050;4.810;2022-12-07T06:36:47;5.87;;;1.13;;
37527;SDS011;23372;52.050;4.810;2022-12-07T06:39:16;6.53;;;0.97;;
37527;SDS011;23372;52.050;4.810;2022-12-07T06:41:43;4.60;;;0.80;;
37527;SDS011;23372;52.050;4.810;2022-12-07T06:44:09;7.07;;;1.47;;
37527;SDS011;23372;52.050;4.810;2022-12-07T06:46:34;7.17;;;1.33;;
37527;SDS011;23372;52.050;4.810;2022-12-07T06:49:03;6.00;;;0.93;;
37527;SDS011;23372;52.050;4.810;2022-12-07T06:51:30;4.47;;;1.10;;
37527;SDS011;23372;52.050;4.810;2022-12-07T06:53:56;4.63;;;1.03;;
37527;SDS011;23372;52.050;4.810;2022-12-07T06:56:22;3.63;;;0.90;;
37527;SDS011;23372;52.050;4.810;2022-12-07T06:58:48;8.60;;;1.50;;
37527;SDS011;23372;52.050;4.810;2022-12-07T07:01:15;8.03;;;1.37;;
37527;SDS011;23372;52.050;4.810;2022-12-07T07:03:43;3.03;;;1.20;;
37527;SDS011;23372;52.050;4.810;2022-12-07T07:06:10;3.70;;;1.30;;
37527;SDS011;23372;52.050;4.810;2022-12-07T07:08:36;8.20;;;1.43;;
37527;SDS011;23372;52.050;4.810;2022-12-07T07:11:03;8.37;;;1.43;;
37527;SDS011;23372;52.050;4.810;2022-12-07T07:13:29;6.57;;;1.30;;
37527;SDS011;23372;52.050;4.810;2022-12-07T07:15:55;7.90;;;1.30;;
37527;SDS011;23372;52.050;4.810;2022-12-07T07:18:20;12.50;;;1.63;;
37527;SDS011;23372;52.050;4.810;2022-12-07T07:20:46;6.53;;;1.80;;
37527;SDS011;23372;52.050;4.810;2022-12-07T07:23:12;12.30;;;2.33;;
37527;SDS011;23372;52.050;4.810;2022-12-07T07:25:38;7.10;;;1.60;;
37527;SDS011;23372;52.050;4.810;2022-12-07T07:28:03;6.93;;;1.90;;
37527;SDS011;23372;52.050;4.810;2022-12-07T07:30:29;6.07;;;1.10;;
37527;SDS011;23372;52.050;4.810;2022-12-07T07:32:59;2.87;;;1.10;;
37527;SDS011;23372;52.050;4.810;2022-12-07T07:35:26;3.90;;;1.60;;
37527;SDS011;23372;52.050;4.810;2022-12-07T07:37:52;8.40;;;2.03;;
37527;SDS011;23372;52.050;4.810;2022-12-07T07:40:18;15.13;;;3.73;;
37527;SDS011;23372;52.050;4.810;2022-12-07T07:42:43;9.53;;;4.17;;
37527;SDS011;23372;52.050;4.810;2022-12-07T07:45:13;16.80;;;6.07;;
37527;SDS011;23372;52.050;4.810;2022-12-07T07:47:38;22.20;;;7.77;;
37527;SDS011;23372;52.050;4.810;2022-12-07T07:50:04;25.43;;;9.43;;
37527;SDS011;23372;52.050;4.810;2022-12-07T07:52:30;25.67;;;9.27;;
37527;SDS011;23372;52.050;4.810;2022-12-07T07:54:56;18.37;;;7.70;;
37527;SDS011;23372;52.050;4.810;2022-12-07T07:57:21;6.77;;;3.53;;
37527;SDS011;23372;52.050;4.810;2022-12-07T07:59:47;6.43;;;1.97;;
37527;SDS011;23372;52.050;4.810;2022-12-07T08:02:13;8.80;;;2.00;;
37527;SDS011;23372;52.050;4.810;2022-12-07T08:04:40;12.17;;;2.00;;
37527;SDS011;23372;52.050;4.810;2022-12-07T08:07:06;7.13;;;2.10;;
37527;SDS011;23372;52.050;4.810;2022-12-07T08:09:32;6.87;;;1.77;;
37527;SDS011;23372;52.050;4.810;2022-12-07T08:11:57;6.63;;;1.73;;
37527;SDS011;23372;52.050;4.810;2022-12-07T08:14:23;5.60;;;1.80;;
37527;SDS011;23372;52.050;4.810;2022-12-07T08:16:49;6.97;;;1.47;;
37527;SDS011;23372;52.050;4.810;2022-12-07T08:19:15;6.50;;;1.70;;
37527;SDS011;23372;52.050;4.810;2022-12-07T08:21:40;8.50;;;3.07;;
37527;SDS011;23372;52.050;4.810;2022-12-07T08:24:06;13.50;;;4.50;;
37527;SDS011;23372;52.050;4.810;2022-12-07T08:26:32;13.03;;;5.33;;
37527;SDS011;23372;52.050;4.810;2022-12-07T08:28:57;11.90;;;4.20;;
37527;SDS011;23372;52.050;4.810;2022-12-07T08:31:23;8.27;;;2.23;;
37527;SDS011;23372;52.050;4.810;2022-12-07T08:33:49;3.90;;;1.53;;
37527;SDS011;23372;52.050;4.810;2022-12-07T08:36:15;10.63;;;1.90;;
37527;SDS011;23372;52.050;4.810;2022-12-07T08:38:41;4.63;;;1.30;;
37527;SDS011;23372;52.050;4.810;2022-12-07T08:41:07;5.43;;;1.33;;
37527;SDS011;23372;52.050;4.810;2022-12-07T08:43:34;5.53;;;1.20;;
37527;SDS011;23372;52.050;4.810;2022-12-07T08:46:11;10.97;;;1.80;;
37527;SDS011;23372;52.050;4.810;2022-12-07T08:48:41;3.90;;;1.90;;
37527;SDS011;23372;52.050;4.810;2022-12-07T08:51:11;6.83;;;1.43;;
37527;SDS011;23372;52.050;4.810;2022-12-07T08:53:38;5.63;;;1.97;;
37527;SDS011;23372;52.050;4.810;2022-12-07T08:56:04;7.20;;;1.20;;
37527;SDS011;23372;52.050;4.810;2022-12-07T08:58:31;10.63;;;1.37;;
37527;SDS011;23372;52.050;4.810;2022-12-07T09:00:58;2.97;;;1.20;;
37527;SDS011;23372;52.050;4.810;2022-12-07T09:03:24;6.17;;;0.93;;
37527;SDS011;23372;52.050;4.810;2022-12-07T09:05:49;2.53;;;0.90;;
37527;SDS011;23372;52.050;4.810;2022-12-07T09:08:15;3.77;;;1.10;;
37527;SDS011;23372;52.050;4.810;2022-12-07T09:10:41;4.83;;;1.93;;
37527;SDS011;23372;52.050;4.810;2022-12-07T09:13:07;8.80;;;2.50;;
37527;SDS011;23372;52.050;4.810;2022-12-07T09:15:32;11.17;;;2.73;;
37527;SDS011;23372;52.050;4.810;2022-12-07T09:17:58;6.17;;;1.90;;
37527;SDS011;23372;52.050;4.810;2022-12-07T09:20:24;12.60;;;2.57;;
37527;SDS011;23372;52.050;4.810;2022-12-07T09:22:49;8.20;;;2.67;;
37527;SDS011;23372;52.050;4.810;2022-12-07T09:25:15;6.93;;;2.20;;
37527;SDS011;23372;52.050;4.810;2022-12-07T09:27:41;11.00;;;2.53;;
37527;SDS011;23372;52.050;4.810;2022-12-07T09:30:06;2.37;;;0.97;;
37527;SDS011;23372;52.050;4.810;2022-12-07T09:32:32;5.60;;;1.07;;
37527;SDS011;23372;52.050;4.810;2022-12-07T09:34:58;3.73;;;0.60;;
37527;SDS011;23372;52.050;4.810;2022-12-07T09:37:24;4.77;;;0.80;;
37527;SDS011;23372;52.050;4.810;2022-12-07T09:39:49;3.83;;;0.50;;
37527;SDS011;23372;52.050;4.810;2022-12-07T09:42:24;3.93;;;0.83;;
37527;SDS011;23372;52.050;4.810;2022-12-07T09:44:57;5.23;;;0.83;;
37527;SDS011;23372;52.050;4.810;2022-12-07T09:47:23;2.50;;;0.80;;
37527;SDS011;23372;52.050;4.810;2022-12-07T09:49:49;3.10;;;0.73;;
37527;SDS011;23372;52.050;4.810;2022-12-07T09:52:27;5.37;;;1.20;;
37527;SDS011;23372;52.050;4.810;2022-12-07T09:54:54;5.20;;;0.80;;
37527;SDS011;23372;52.050;4.810;2022-12-07T09:57:24;5.40;;;1.23;;
37527;SDS011;23372;52.050;4.810;2022-12-07T09:59:54;8.40;;;1.23;;
37527;SDS011;23372;52.050;4.810;2022-12-07T10:04:52;7.23;;;1.30;;
37527;SDS011;23372;52.050;4.810;2022-12-07T10:07:18;6.80;;;1.40;;
37527;SDS011;23372;52.050;4.810;2022-12-07T10:09:44;3.33;;;1.10;;
37527;SDS011;23372;52.050;4.810;2022-12-07T10:12:10;5.23;;;1.10;;
37527;SDS011;23372;52.050;4.810;2022-12-07T10:14:40;3.43;;;1.00;;
37527;SDS011;23372;52.050;4.810;2022-12-07T10:17:35;5.60;;;0.70;;
37527;SDS011;23372;52.050;4.810;2022-12-07T10:20:10;3.27;;;1.10;;
37527;SDS011;23372;52.050;4.810;2022-12-07T10:25:22;2.53;;;0.70;;
37527;SDS011;23372;52.050;4.810;2022-12-07T10:30:45;3.63;;;0.60;;
37527;SDS011;23372;52.050;4.810;2022-12-07T10:33:33;3.20;;;0.70;;
37527;SDS011;23372;52.050;4.810;2022-12-07T10:36:20;3.10;;;0.70;;
37527;SDS011;23372;52.050;4.810;2022-12-07T10:39:31;4.20;;;0.73;;
37527;SDS011;23372;52.050;4.810;2022-12-07T10:44:30;5.80;;;1.37;;
37527;SDS011;23372;52.050;4.810;2022-12-07T10:52:50;5.13;;;1.00;;
37527;SDS011;23372;52.050;4.810;2022-12-07T10:55:46;5.43;;;1.03;;
37527;SDS011;23372;52.050;4.810;2022-12-07T10:58:44;13.27;;;1.23;;
37527;SDS011;23372;52.050;4.810;2022-12-07T11:01:31;4.60;;;0.80;;
37527;SDS011;23372;52.050;4.810;2022-12-07T11:04:07;6.60;;;1.10;;
37527;SDS011;23372;52.050;4.810;2022-12-07T11:12:25;7.10;;;1.10;;
37527;SDS011;23372;52.050;4.810;2022-12-07T11:15:18;8.00;;;0.80;;
37527;SDS011;23372;52.050;4.810;2022-12-07T11:37:48;5.00;;;2.10;;
37527;SDS011;23372;52.050;4.810;2022-12-07T11:40:20;6.00;;;2.00;;
37527;SDS011;23372;52.050;4.810;2022-12-07T11:42:58;5.00;;;1.77;;
37527;SDS011;23372;52.050;4.810;2022-12-07T11:45:31;8.67;;;1.60;;
37527;SDS011;23372;52.050;4.810;2022-12-07T11:48:09;8.60;;;1.77;;
37527;SDS011;23372;52.050;4.810;2022-12-07T11:50:43;10.47;;;2.07;;
37527;SDS011;23372;52.050;4.810;2022-12-07T11:56:13;11.57;;;2.07;;
37527;SDS011;23372;52.050;4.810;2022-12-07T12:01:24;7.70;;;1.67;;
37527;SDS011;23372;52.050;4.810;2022-12-07T12:06:39;11.70;;;1.43;;
37527;SDS011;23372;52.050;4.810;2022-12-07T12:09:11;8.53;;;1.93;;
37527;SDS011;23372;52.050;4.810;2022-12-07T12:14:46;22.77;;;6.33;;
37527;SDS011;23372;52.050;4.810;2022-12-07T12:23:19;7.03;;;2.07;;
37527;SDS011;23372;52.050;4.810;2022-12-07T12:26:00;7.23;;;1.23;;
37527;SDS011;23372;52.050;4.810;2022-12-07T12:28:30;6.10;;;1.67;;
37527;SDS011;23372;52.050;4.810;2022-12-07T12:31:13;3.43;;;1.10;;
37527;SDS011;23372;52.050;4.810;2022-12-07T12:33:42;23.97;;;13.20;;
37527;SDS011;23372;52.050;4.810;2022-12-07T12:47:00;7.90;;;1.90;;
37527;SDS011;23372;52.050;4.810;2022-12-07T12:49:42;4.97;;;0.87;;
37527;SDS011;23372;52.050;4.810;2022-12-07T12:55:23;6.37;;;1.73;;
37527;SDS011;23372;52.050;4.810;2022-12-07T12:57:45;7.53;;;1.10;;
37527;SDS011;23372;52.050;4.810;2022-12-07T13:02:52;8.20;;;1.00;;
37527;SDS011;23372;52.050;4.810;2022-12-07T13:05:23;4.83;;;0.73;;
37527;SDS011;23372;52.050;4.810;2022-12-07T13:07:54;5.67;;;0.80;;
37527;SDS011;23372;52.050;4.810;2022-12-07T13:10:40;3.27;;;0.67;;
37527;SDS011;23372;52.050;4.810;2022-12-07T13:15:49;4.33;;;1.07;;
37527;SDS011;23372;52.050;4.810;2022-12-07T13:20:57;3.33;;;1.30;;
37527;SDS011;23372;52.050;4.810;2022-12-07T13:31:44;2.10;;;0.53;;
37527;SDS011;23372;52.050;4.810;2022-12-07T13:37:11;1.40;;;0.40;;
37527;SDS011;23372;52.050;4.810;2022-12-07T13:39:56;1.40;;;0.40;;
37527;SDS011;23372;52.050;4.810;2022-12-07T13:42:30;6.10;;;5.33;;
37527;SDS011;23372;52.050;4.810;2022-12-07T13:44:59;1.77;;;0.47;;
37527;SDS011;23372;52.050;4.810;2022-12-07T13:47:49;1.90;;;0.30;;
37527;SDS011;23372;52.050;4.810;2022-12-07T13:50:23;1.00;;;0.20;;
37527;SDS011;23372;52.050;4.810;2022-12-07T13:52:54;1.73;;;0.27;;
37527;SDS011;23372;52.050;4.810;2022-12-07T13:55:21;0.67;;;0.37;;
37527;SDS011;23372;52.050;4.810;2022-12-07T13:57:47;4.13;;;0.60;;
37527;SDS011;23372;52.050;4.810;2022-12-07T14:00:26;4.10;;;0.30;;
37527;SDS011;23372;52.050;4.810;2022-12-07T14:05:27;3.23;;;0.40;;
37527;SDS011;23372;52.050;4.810;2022-12-07T14:10:35;4.40;;;0.50;;
37527;SDS011;23372;52.050;4.810;2022-12-07T14:13:17;3.57;;;1.10;;
37527;SDS011;23372;52.050;4.810;2022-12-07T14:15:55;4.30;;;0.73;;
37527;SDS011;23372;52.050;4.810;2022-12-07T14:18:30;5.63;;;0.40;;
37527;SDS011;23372;52.050;4.810;2022-12-07T14:21:02;5.63;;;1.53;;
37527;SDS011;23372;52.050;4.810;2022-12-07T14:23:34;1.20;;;0.50;;
37527;SDS011;23372;52.050;4.810;2022-12-07T14:26:13;3.87;;;0.50;;
37527;SDS011;23372;52.050;4.810;2022-12-07T14:28:41;4.47;;;0.80;;
37527;SDS011;23372;52.050;4.810;2022-12-07T14:31:15;2.47;;;0.67;;
37527;SDS011;23372;52.050;4.810;2022-12-07T14:33:46;1.30;;;0.50;;
37527;SDS011;23372;52.050;4.810;2022-12-07T14:36:12;6.37;;;1.00;;
37527;SDS011;23372;52.050;4.810;2022-12-07T14:38:39;2.50;;;0.77;;
37527;SDS011;23372;52.050;4.810;2022-12-07T14:41:06;4.37;;;1.07;;
37527;SDS011;23372;52.050;4.810;2022-12-07T14:43:58;6.20;;;1.00;;
37527;SDS011;23372;52.050;4.810;2022-12-07T14:46:23;3.80;;;0.80;;
37527;SDS011;23372;52.050;4.810;2022-12-07T14:48:49;4.70;;;1.03;;
37527;SDS011;23372;52.050;4.810;2022-12-07T14:51:15;2.50;;;0.77;;
37527;SDS011;23372;52.050;4.810;2022-12-07T14:53:46;4.67;;;0.70;;
37527;SDS011;23372;52.050;4.810;2022-12-07T14:56:15;2.57;;;1.00;;
37527;SDS011;23372;52.050;4.810;2022-12-07T14:58:40;3.70;;;0.93;;
37527;SDS011;23372;52.050;4.810;2022-12-07T15:01:06;5.77;;;1.00;;
37527;SDS011;23372;52.050;4.810;2022-12-07T15:03:32;5.77;;;1.43;;
37527;SDS011;23372;52.050;4.810;2022-12-07T15:05:59;7.23;;;1.43;;
37527;SDS011;23372;52.050;4.810;2022-12-07T15:08:25;4.37;;;1.67;;
37527;SDS011;23372;52.050;4.810;2022-12-07T15:10:51;5.83;;;1.73;;
37527;SDS011;23372;52.050;4.810;2022-12-07T15:13:17;3.23;;;2.00;;
37527;SDS011;23372;52.050;4.810;2022-12-07T15:16:01;10.43;;;3.07;;
37527;SDS011;23372;52.050;4.810;2022-12-07T15:18:26;8.63;;;4.03;;
37527;SDS011;23372;52.050;4.810;2022-12-07T15:20:52;12.37;;;5.70;;
37527;SDS011;23372;52.050;4.810;2022-12-07T15:23:17;12.50;;;6.27;;
37527;SDS011;23372;52.050;4.810;2022-12-07T15:25:44;14.23;;;5.77;;
37527;SDS011;23372;52.050;4.810;2022-12-07T15:28:11;11.93;;;5.30;;
37527;SDS011;23372;52.050;4.810;2022-12-07T15:30:37;11.33;;;5.07;;
37527;SDS011;23372;52.050;4.810;2022-12-07T15:33:03;12.27;;;3.93;;
37527;SDS011;23372;52.050;4.810;2022-12-07T15:35:29;10.50;;;2.70;;
37527;SDS011;23372;52.050;4.810;2022-12-07T15:37:54;5.10;;;1.63;;
37527;SDS011;23372;52.050;4.810;2022-12-07T15:40:20;5.23;;;1.50;;
37527;SDS011;23372;52.050;4.810;2022-12-07T15:42:46;4.50;;;1.30;;
37527;SDS011;23372;52.050;4.810;2022-12-07T15:45:11;7.53;;;1.50;;
37527;SDS011;23372;52.050;4.810;2022-12-07T15:47:42;4.13;;;1.83;;
37527;SDS011;23372;52.050;4.810;2022-12-07T15:50:12;6.33;;;0.87;;
37527;SDS011;23372;52.050;4.810;2022-12-07T15:52:40;5.43;;;1.40;;
37527;SDS011;23372;52.050;4.810;2022-12-07T15:55:05;6.33;;;1.47;;
37527;SDS011;23372;52.050;4.810;2022-12-07T15:57:32;2.33;;;1.10;;
37527;SDS011;23372;52.050;4.810;2022-12-07T16:00:00;2.57;;;0.90;;
37527;SDS011;23372;52.050;4.810;2022-12-07T16:02:25;5.77;;;1.00;;
37527;SDS011;23372;52.050;4.810;2022-12-07T16:04:51;1.77;;;1.00;;
37527;SDS011;23372;52.050;4.810;2022-12-07T16:07:17;2.30;;;1.10;;
37527;SDS011;23372;52.050;4.810;2022-12-07T16:09:44;3.33;;;0.90;;
37527;SDS011;23372;52.050;4.810;2022-12-07T16:12:10;2.53;;;0.93;;
37527;SDS011;23372;52.050;4.810;2022-12-07T16:14:36;3.83;;;0.80;;
37527;SDS011;23372;52.050;4.810;2022-12-07T16:17:03;5.20;;;1.50;;
37527;SDS011;23372;52.050;4.810;2022-12-07T16:19:29;5.23;;;2.40;;
37527;SDS011;23372;52.050;4.810;2022-12-07T16:21:56;5.03;;;2.20;;
37527;SDS011;23372;52.050;4.810;2022-12-07T16:24:21;4.93;;;2.40;;
37527;SDS011;23372;52.050;4.810;2022-12-07T16:26:47;4.27;;;2.77;;
37527;SDS011;23372;52.050;4.810;2022-12-07T16:29:13;3.57;;;2.17;;
37527;SDS011;23372;52.050;4.810;2022-12-07T16:31:39;4.20;;;2.37;;
37527;SDS011;23372;52.050;4.810;2022-12-07T16:34:05;5.50;;;3.10;;
37527;SDS011;23372;52.050;4.810;2022-12-07T16:36:31;5.33;;;3.10;;
37527;SDS011;23372;52.050;4.810;2022-12-07T16:39:00;6.90;;;3.47;;
37527;SDS011;23372;52.050;4.810;2022-12-07T16:41:27;5.80;;;2.73;;
37527;SDS011;23372;52.050;4.810;2022-12-07T16:43:53;5.47;;;2.33;;
37527;SDS011;23372;52.050;4.810;2022-12-07T16:46:18;6.30;;;2.63;;
37527;SDS011;23372;52.050;4.810;2022-12-07T16:48:44;3.83;;;2.53;;
37527;SDS011;23372;52.050;4.810;2022-12-07T16:51:11;4.50;;;2.53;;
37527;SDS011;23372;52.050;4.810;2022-12-07T16:53:38;8.30;;;2.50;;
37527;SDS011;23372;52.050;4.810;2022-12-07T16:56:09;8.17;;;2.30;;
37527;SDS011;23372;52.050;4.810;2022-12-07T16:58:39;7.10;;;3.10;;
37527;SDS011;23372;52.050;4.810;2022-12-07T17:01:09;4.87;;;2.27;;